sensor_id;sensor_type;location;lat;lon;timestamp;P1;durP1;ratioP1;P2;durP2;ratioP2
6095;SDS011;25081;42.698;23.298;2023-02-28T00:01:20;24.15;;;16.35;;
6095;SDS011;25081;42.698;23.298;2023-02-28T00:03:30;23.90;;;17.15;;
6095;SDS011;25081;42.698;23.298;2023-02-28T00:05:42;29.90;;;19.00;;
6095;SDS011;25081;42.698;23.298;2023-02-28T00:07:52;24.67;;;17.80;;
6095;SDS011;25081;42.698;23.298;2023-02-28T00:10:03;24.35;;;17.02;;
6095;SDS011;25081;42.698;23.298;2023-02-28T00:12:15;25.60;;;16.55;;
6095;SDS011;25081;42.698;23.298;2023-02-28T00:14:25;22.45;;;16.23;;
6095;SDS011;25081;42.698;23.298;2023-02-28T00:16:36;26.00;;;17.48;;
6095;SDS011;25081;42.698;23.298;2023-02-28T00:18:47;27.15;;;18.80;;
6095;SDS011;25081;42.698;23.298;2023-02-28T00:20:57;25.72;;;18.15;;
6095;SDS011;25081;42.698;23.298;2023-02-28T00:23:08;23.98;;;16.17;;
6095;SDS011;25081;42.698;23.298;2023-02-28T00:25:21;22.73;;;15.83;;
6095;SDS011;25081;42.698;23.298;2023-02-28T00:27:29;22.27;;;15.60;;
6095;SDS011;25081;42.698;23.298;2023-02-28T00:29:40;23.87;;;17.10;;
6095;SDS011;25081;42.698;23.298;2023-02-28T00:31:51;20.75;;;15.50;;
6095;SDS011;25081;42.698;23.298;2023-02-28T00:34:01;22.42;;;15.45;;
6095;SDS011;25081;42.698;23.298;2023-02-28T00:36:12;22.17;;;14.73;;
6095;SDS011;25081;42.698;23.298;2023-02-28T00:38:22;22.32;;;15.75;;
6095;SDS011;25081;42.698;23.298;2023-02-28T00:40:33;23.65;;;16.35;;
6095;SDS011;25081;42.698;23.298;2023-02-28T00:42:43;26.48;;;17.98;;
6095;SDS011;25081;42.698;23.298;2023-02-28T00:44:54;31.20;;;18.23;;
6095;SDS011;25081;42.698;23.298;2023-02-28T00:47:05;33.08;;;19.70;;
6095;SDS011;25081;42.698;23.298;2023-02-28T00:49:16;30.72;;;19.75;;
6095;SDS011;25081;42.698;23.298;2023-02-28T00:51:27;30.80;;;20.32;;
6095;SDS011;25081;42.698;23.298;2023-02-28T00:53:37;30.92;;;20.15;;
6095;SDS011;25081;42.698;23.298;2023-02-28T00:55:48;30.92;;;19.98;;
6095;SDS011;25081;42.698;23.298;2023-02-28T00:57:59;30.27;;;20.02;;
6095;SDS011;25081;42.698;23.298;2023-02-28T01:00:11;34.55;;;20.60;;
6095;SDS011;25081;42.698;23.298;2023-02-28T01:02:23;32.83;;;21.33;;
6095;SDS011;25081;42.698;23.298;2023-02-28T01:04:33;32.10;;;20.80;;
6095;SDS011;25081;42.698;23.298;2023-02-28T01:06:44;33.38;;;21.07;;
6095;SDS011;25081;42.698;23.298;2023-02-28T01:08:54;30.85;;;20.95;;
6095;SDS011;25081;42.698;23.298;2023-02-28T01:11:09;37.23;;;22.07;;
6095;SDS011;25081;42.698;23.298;2023-02-28T01:13:19;30.15;;;21.05;;
6095;SDS011;25081;42.698;23.298;2023-02-28T01:15:30;32.55;;;20.55;;
6095;SDS011;25081;42.698;23.298;2023-02-28T01:17:40;33.75;;;22.50;;
6095;SDS011;25081;42.698;23.298;2023-02-28T01:19:52;42.13;;;23.73;;
6095;SDS011;25081;42.698;23.298;2023-02-28T01:22:04;36.98;;;23.70;;
6095;SDS011;25081;42.698;23.298;2023-02-28T01:24:14;36.35;;;22.90;;
6095;SDS011;25081;42.698;23.298;2023-02-28T01:26:25;30.68;;;21.17;;
6095;SDS011;25081;42.698;23.298;2023-02-28T01:28:36;38.42;;;23.35;;
6095;SDS011;25081;42.698;23.298;2023-02-28T01:30:48;36.13;;;24.32;;
6095;SDS011;25081;42.698;23.298;2023-02-28T01:32:59;40.85;;;23.60;;
6095;SDS011;25081;42.698;23.298;2023-02-28T01:35:09;36.13;;;24.05;;
6095;SDS011;25081;42.698;23.298;2023-02-28T01:37:20;35.58;;;22.10;;
6095;SDS011;25081;42.698;23.298;2023-02-28T01:39:31;37.83;;;22.80;;
6095;SDS011;25081;42.698;23.298;2023-02-28T01:41:41;35.55;;;22.93;;
6095;SDS011;25081;42.698;23.298;2023-02-28T01:44:03;34.27;;;21.52;;
6095;SDS011;25081;42.698;23.298;2023-02-28T01:46:13;32.88;;;21.80;;
6095;SDS011;25081;42.698;23.298;2023-02-28T01:48:24;31.82;;;19.73;;
6095;SDS011;25081;42.698;23.298;2023-02-28T01:50:35;34.08;;;20.95;;
6095;SDS011;25081;42.698;23.298;2023-02-28T01:52:45;34.18;;;19.73;;
6095;SDS011;25081;42.698;23.298;2023-02-28T01:54:56;29.20;;;17.80;;
6095;SDS011;25081;42.698;23.298;2023-02-28T01:57:08;28.80;;;18.10;;
6095;SDS011;25081;42.698;23.298;2023-02-28T01:59:19;29.27;;;17.87;;
6095;SDS011;25081;42.698;23.298;2023-02-28T02:01:30;32.33;;;19.10;;
6095;SDS011;25081;42.698;23.298;2023-02-28T02:03:41;31.25;;;19.20;;
6095;SDS011;25081;42.698;23.298;2023-02-28T02:05:52;37.42;;;18.67;;
6095;SDS011;25081;42.698;23.298;2023-02-28T02:08:03;34.30;;;20.50;;
6095;SDS011;25081;42.698;23.298;2023-02-28T02:10:14;40.78;;;18.50;;
6095;SDS011;25081;42.698;23.298;2023-02-28T02:12:26;38.00;;;20.12;;
6095;SDS011;25081;42.698;23.298;2023-02-28T02:14:39;38.17;;;19.60;;
6095;SDS011;25081;42.698;23.298;2023-02-28T02:16:58;38.75;;;19.73;;
6095;SDS011;25081;42.698;23.298;2023-02-28T02:19:15;37.60;;;21.97;;
6095;SDS011;25081;42.698;23.298;2023-02-28T02:21:39;36.90;;;20.12;;
6095;SDS011;25081;42.698;23.298;2023-02-28T02:24:13;33.63;;;20.30;;
6095;SDS011;25081;42.698;23.298;2023-02-28T02:26:45;33.98;;;21.20;;
6095;SDS011;25081;42.698;23.298;2023-02-28T02:34:58;49.00;;;24.32;;
6095;SDS011;25081;42.698;23.298;2023-02-28T02:37:15;49.63;;;25.88;;
6095;SDS011;25081;42.698;23.298;2023-02-28T02:39:29;51.58;;;24.72;;
6095;SDS011;25081;42.698;23.298;2023-02-28T02:41:39;49.45;;;25.32;;
6095;SDS011;25081;42.698;23.298;2023-02-28T02:43:49;46.13;;;25.10;;
6095;SDS011;25081;42.698;23.298;2023-02-28T02:46:01;43.40;;;24.47;;
6095;SDS011;25081;42.698;23.298;2023-02-28T02:48:12;53.85;;;27.30;;
6095;SDS011;25081;42.698;23.298;2023-02-28T02:50:24;42.62;;;23.80;;
6095;SDS011;25081;42.698;23.298;2023-02-28T02:52:36;38.10;;;22.58;;
6095;SDS011;25081;42.698;23.298;2023-02-28T02:54:46;35.55;;;20.15;;
6095;SDS011;25081;42.698;23.298;2023-02-28T02:56:57;40.33;;;22.70;;
6095;SDS011;25081;42.698;23.298;2023-02-28T02:59:07;31.82;;;20.30;;
6095;SDS011;25081;42.698;23.298;2023-02-28T03:01:19;36.83;;;19.23;;
6095;SDS011;25081;42.698;23.298;2023-02-28T03:03:30;36.95;;;21.87;;
6095;SDS011;25081;42.698;23.298;2023-02-28T03:05:44;35.70;;;20.95;;
6095;SDS011;25081;42.698;23.298;2023-02-28T03:07:53;36.53;;;20.72;;
6095;SDS011;25081;42.698;23.298;2023-02-28T03:12:40;35.03;;;20.37;;
6095;SDS011;25081;42.698;23.298;2023-02-28T03:14:58;36.25;;;21.35;;
6095;SDS011;25081;42.698;23.298;2023-02-28T03:17:17;36.53;;;20.77;;
6095;SDS011;25081;42.698;23.298;2023-02-28T03:19:45;37.03;;;19.55;;
6095;SDS011;25081;42.698;23.298;2023-02-28T03:22:04;39.85;;;21.82;;
6095;SDS011;25081;42.698;23.298;2023-02-28T03:24:30;40.75;;;21.62;;
6095;SDS011;25081;42.698;23.298;2023-02-28T03:26:41;36.83;;;22.07;;
6095;SDS011;25081;42.698;23.298;2023-02-28T03:28:52;32.28;;;20.48;;
6095;SDS011;25081;42.698;23.298;2023-02-28T03:31:05;40.03;;;23.18;;
6095;SDS011;25081;42.698;23.298;2023-02-28T03:33:14;39.90;;;23.00;;
6095;SDS011;25081;42.698;23.298;2023-02-28T03:35:26;35.03;;;22.02;;
6095;SDS011;25081;42.698;23.298;2023-02-28T03:37:35;42.45;;;22.10;;
6095;SDS011;25081;42.698;23.298;2023-02-28T03:39:46;35.00;;;20.90;;
6095;SDS011;25081;42.698;23.298;2023-02-28T03:41:57;38.80;;;22.60;;
6095;SDS011;25081;42.698;23.298;2023-02-28T03:44:08;34.35;;;20.43;;
6095;SDS011;25081;42.698;23.298;2023-02-28T03:46:18;38.02;;;21.87;;
6095;SDS011;25081;42.698;23.298;2023-02-28T03:48:30;40.15;;;22.20;;
6095;SDS011;25081;42.698;23.298;2023-02-28T03:50:40;41.18;;;24.00;;
6095;SDS011;25081;42.698;23.298;2023-02-28T03:52:51;44.77;;;24.87;;
6095;SDS011;25081;42.698;23.298;2023-02-28T03:55:02;44.03;;;23.98;;
6095;SDS011;25081;42.698;23.298;2023-02-28T03:57:13;43.60;;;24.30;;
6095;SDS011;25081;42.698;23.298;2023-02-28T03:59:24;47.40;;;26.68;;
6095;SDS011;25081;42.698;23.298;2023-02-28T04:01:35;43.95;;;24.15;;
6095;SDS011;25081;42.698;23.298;2023-02-28T04:03:45;42.00;;;22.40;;
6095;SDS011;25081;42.698;23.298;2023-02-28T04:05:55;44.00;;;26.15;;
6095;SDS011;25081;42.698;23.298;2023-02-28T04:08:07;45.52;;;24.07;;
6095;SDS011;25081;42.698;23.298;2023-02-28T04:10:17;39.70;;;22.42;;
6095;SDS011;25081;42.698;23.298;2023-02-28T04:12:27;39.45;;;22.70;;
6095;SDS011;25081;42.698;23.298;2023-02-28T04:14:38;37.05;;;23.30;;
6095;SDS011;25081;42.698;23.298;2023-02-28T04:16:48;36.60;;;22.00;;
6095;SDS011;25081;42.698;23.298;2023-02-28T04:19:00;44.98;;;25.08;;
6095;SDS011;25081;42.698;23.298;2023-02-28T04:21:10;40.48;;;24.98;;
6095;SDS011;25081;42.698;23.298;2023-02-28T04:23:21;39.75;;;21.17;;
6095;SDS011;25081;42.698;23.298;2023-02-28T04:25:31;38.83;;;23.25;;
6095;SDS011;25081;42.698;23.298;2023-02-28T04:27:42;41.25;;;24.65;;
6095;SDS011;25081;42.698;23.298;2023-02-28T04:29:52;40.58;;;20.85;;
6095;SDS011;25081;42.698;23.298;2023-02-28T04:32:03;46.92;;;23.02;;
6095;SDS011;25081;42.698;23.298;2023-02-28T04:34:14;42.03;;;21.25;;
6095;SDS011;25081;42.698;23.298;2023-02-28T04:36:24;36.45;;;20.77;;
6095;SDS011;25081;42.698;23.298;2023-02-28T04:38:35;38.92;;;20.02;;
6095;SDS011;25081;42.698;23.298;2023-02-28T04:40:45;39.80;;;22.93;;
6095;SDS011;25081;42.698;23.298;2023-02-28T04:42:55;41.70;;;23.62;;
6095;SDS011;25081;42.698;23.298;2023-02-28T04:45:07;40.73;;;22.45;;
6095;SDS011;25081;42.698;23.298;2023-02-28T04:47:19;42.10;;;23.45;;
6095;SDS011;25081;42.698;23.298;2023-02-28T04:49:29;43.52;;;23.25;;
6095;SDS011;25081;42.698;23.298;2023-02-28T04:51:40;44.18;;;24.00;;
6095;SDS011;25081;42.698;23.298;2023-02-28T04:53:50;46.48;;;22.60;;
6095;SDS011;25081;42.698;23.298;2023-02-28T04:56:01;51.48;;;26.85;;
6095;SDS011;25081;42.698;23.298;2023-02-28T04:58:11;45.20;;;24.10;;
6095;SDS011;25081;42.698;23.298;2023-02-28T05:00:22;48.15;;;25.68;;
6095;SDS011;25081;42.698;23.298;2023-02-28T05:02:34;48.02;;;25.40;;
6095;SDS011;25081;42.698;23.298;2023-02-28T05:04:45;49.05;;;26.87;;
6095;SDS011;25081;42.698;23.298;2023-02-28T05:06:55;55.73;;;27.10;;
6095;SDS011;25081;42.698;23.298;2023-02-28T05:09:06;51.85;;;26.40;;
6095;SDS011;25081;42.698;23.298;2023-02-28T05:11:17;49.25;;;27.52;;
6095;SDS011;25081;42.698;23.298;2023-02-28T05:13:27;51.60;;;26.65;;
6095;SDS011;25081;42.698;23.298;2023-02-28T05:15:38;55.63;;;28.25;;
6095;SDS011;25081;42.698;23.298;2023-02-28T05:17:48;61.35;;;30.43;;
6095;SDS011;25081;42.698;23.298;2023-02-28T05:19:59;63.17;;;31.42;;
6095;SDS011;25081;42.698;23.298;2023-02-28T05:22:13;73.45;;;36.33;;
6095;SDS011;25081;42.698;23.298;2023-02-28T05:24:24;62.83;;;35.78;;
6095;SDS011;25081;42.698;23.298;2023-02-28T05:26:35;72.15;;;32.00;;
6095;SDS011;25081;42.698;23.298;2023-02-28T05:28:45;73.45;;;35.98;;
6095;SDS011;25081;42.698;23.298;2023-02-28T05:30:55;68.62;;;37.50;;
6095;SDS011;25081;42.698;23.298;2023-02-28T05:33:06;72.67;;;36.58;;
6095;SDS011;25081;42.698;23.298;2023-02-28T05:35:19;74.27;;;38.35;;
6095;SDS011;25081;42.698;23.298;2023-02-28T05:37:30;76.75;;;38.65;;
6095;SDS011;25081;42.698;23.298;2023-02-28T05:39:40;82.88;;;38.55;;
6095;SDS011;25081;42.698;23.298;2023-02-28T05:41:51;73.90;;;38.08;;
6095;SDS011;25081;42.698;23.298;2023-02-28T05:44:01;79.15;;;38.30;;
6095;SDS011;25081;42.698;23.298;2023-02-28T05:46:12;72.00;;;37.60;;
6095;SDS011;25081;42.698;23.298;2023-02-28T05:48:22;69.95;;;36.88;;
6095;SDS011;25081;42.698;23.298;2023-02-28T05:50:33;65.20;;;38.20;;
6095;SDS011;25081;42.698;23.298;2023-02-28T05:52:43;71.82;;;36.77;;
6095;SDS011;25081;42.698;23.298;2023-02-28T05:54:54;76.67;;;38.17;;
6095;SDS011;25081;42.698;23.298;2023-02-28T05:57:04;74.80;;;38.28;;
6095;SDS011;25081;42.698;23.298;2023-02-28T05:59:15;71.77;;;37.08;;
6095;SDS011;25081;42.698;23.298;2023-02-28T06:01:31;78.35;;;39.25;;
6095;SDS011;25081;42.698;23.298;2023-02-28T06:03:41;74.12;;;38.55;;
6095;SDS011;25081;42.698;23.298;2023-02-28T06:05:51;73.50;;;38.17;;
6095;SDS011;25081;42.698;23.298;2023-02-28T06:08:02;79.90;;;37.40;;
6095;SDS011;25081;42.698;23.298;2023-02-28T06:10:13;70.22;;;36.98;;
6095;SDS011;25081;42.698;23.298;2023-02-28T06:12:23;61.18;;;35.05;;
6095;SDS011;25081;42.698;23.298;2023-02-28T06:14:34;73.50;;;39.08;;
6095;SDS011;25081;42.698;23.298;2023-02-28T06:16:45;77.35;;;37.80;;
6095;SDS011;25081;42.698;23.298;2023-02-28T06:18:56;73.28;;;37.08;;
6095;SDS011;25081;42.698;23.298;2023-02-28T06:21:06;63.45;;;34.50;;
6095;SDS011;25081;42.698;23.298;2023-02-28T06:23:17;66.55;;;30.90;;
6095;SDS011;25081;42.698;23.298;2023-02-28T06:25:27;72.08;;;33.58;;
6095;SDS011;25081;42.698;23.298;2023-02-28T06:27:38;56.75;;;30.17;;
6095;SDS011;25081;42.698;23.298;2023-02-28T06:29:49;58.50;;;31.07;;
6095;SDS011;25081;42.698;23.298;2023-02-28T06:31:59;60.78;;;31.95;;
6095;SDS011;25081;42.698;23.298;2023-02-28T06:34:10;57.73;;;30.80;;
6095;SDS011;25081;42.698;23.298;2023-02-28T06:36:20;61.42;;;31.60;;
6095;SDS011;25081;42.698;23.298;2023-02-28T06:38:30;56.80;;;31.50;;
6095;SDS011;25081;42.698;23.298;2023-02-28T06:40:41;49.00;;;29.52;;
6095;SDS011;25081;42.698;23.298;2023-02-28T06:42:51;55.45;;;31.25;;
6095;SDS011;25081;42.698;23.298;2023-02-28T06:45:03;52.35;;;31.05;;
6095;SDS011;25081;42.698;23.298;2023-02-28T06:47:17;56.65;;;29.12;;
6095;SDS011;25081;42.698;23.298;2023-02-28T06:49:28;50.30;;;30.05;;
6095;SDS011;25081;42.698;23.298;2023-02-28T06:51:41;51.10;;;27.37;;
6095;SDS011;25081;42.698;23.298;2023-02-28T06:53:49;46.55;;;31.23;;
6095;SDS011;25081;42.698;23.298;2023-02-28T06:56:02;52.10;;;31.87;;
6095;SDS011;25081;42.698;23.298;2023-02-28T06:58:13;50.95;;;29.60;;
6095;SDS011;25081;42.698;23.298;2023-02-28T07:00:24;57.50;;;29.15;;
6095;SDS011;25081;42.698;23.298;2023-02-28T07:02:35;54.88;;;30.62;;
6095;SDS011;25081;42.698;23.298;2023-02-28T07:04:46;60.95;;;35.83;;
6095;SDS011;25081;42.698;23.298;2023-02-28T07:06:56;61.77;;;32.95;;
6095;SDS011;25081;42.698;23.298;2023-02-28T07:09:07;58.13;;;32.83;;
6095;SDS011;25081;42.698;23.298;2023-02-28T07:11:17;54.63;;;33.42;;
6095;SDS011;25081;42.698;23.298;2023-02-28T07:13:28;69.92;;;35.38;;
6095;SDS011;25081;42.698;23.298;2023-02-28T07:15:39;55.38;;;32.30;;
6095;SDS011;25081;42.698;23.298;2023-02-28T07:17:51;64.45;;;33.38;;
6095;SDS011;25081;42.698;23.298;2023-02-28T07:20:02;63.85;;;39.05;;
6095;SDS011;25081;42.698;23.298;2023-02-28T07:22:13;55.80;;;34.25;;
6095;SDS011;25081;42.698;23.298;2023-02-28T07:24:23;66.35;;;34.33;;
6095;SDS011;25081;42.698;23.298;2023-02-28T07:26:34;53.90;;;32.80;;
6095;SDS011;25081;42.698;23.298;2023-02-28T07:28:45;56.13;;;31.40;;
6095;SDS011;25081;42.698;23.298;2023-02-28T07:30:55;52.25;;;31.25;;
6095;SDS011;25081;42.698;23.298;2023-02-28T07:33:05;54.58;;;30.72;;
6095;SDS011;25081;42.698;23.298;2023-02-28T07:35:16;48.50;;;28.77;;
6095;SDS011;25081;42.698;23.298;2023-02-28T07:37:27;46.95;;;30.17;;
6095;SDS011;25081;42.698;23.298;2023-02-28T07:39:38;61.40;;;33.08;;
6095;SDS011;25081;42.698;23.298;2023-02-28T07:41:50;46.70;;;27.80;;
6095;SDS011;25081;42.698;23.298;2023-02-28T07:44:00;45.73;;;27.58;;
6095;SDS011;25081;42.698;23.298;2023-02-28T07:46:12;53.02;;;29.82;;
6095;SDS011;25081;42.698;23.298;2023-02-28T07:48:21;50.78;;;30.45;;
6095;SDS011;25081;42.698;23.298;2023-02-28T07:50:32;50.08;;;30.02;;
6095;SDS011;25081;42.698;23.298;2023-02-28T07:52:43;52.62;;;32.13;;
6095;SDS011;25081;42.698;23.298;2023-02-28T07:54:53;60.50;;;33.63;;
6095;SDS011;25081;42.698;23.298;2023-02-28T07:57:04;54.23;;;31.87;;
6095;SDS011;25081;42.698;23.298;2023-02-28T07:59:14;55.63;;;32.67;;
6095;SDS011;25081;42.698;23.298;2023-02-28T08:01:25;51.05;;;31.62;;
6095;SDS011;25081;42.698;23.298;2023-02-28T08:03:35;53.60;;;31.55;;
6095;SDS011;25081;42.698;23.298;2023-02-28T08:05:46;45.38;;;29.27;;
6095;SDS011;25081;42.698;23.298;2023-02-28T08:07:56;54.18;;;31.25;;
6095;SDS011;25081;42.698;23.298;2023-02-28T08:10:08;45.85;;;30.72;;
6095;SDS011;25081;42.698;23.298;2023-02-28T08:12:19;48.95;;;30.52;;
6095;SDS011;25081;42.698;23.298;2023-02-28T08:14:30;46.15;;;28.62;;
6095;SDS011;25081;42.698;23.298;2023-02-28T08:16:41;51.45;;;30.85;;
6095;SDS011;25081;42.698;23.298;2023-02-28T08:18:51;45.28;;;27.45;;
6095;SDS011;25081;42.698;23.298;2023-02-28T08:21:06;42.83;;;29.90;;
6095;SDS011;25081;42.698;23.298;2023-02-28T08:23:17;42.45;;;29.85;;
6095;SDS011;25081;42.698;23.298;2023-02-28T08:25:27;44.50;;;27.87;;
6095;SDS011;25081;42.698;23.298;2023-02-28T08:27:38;49.40;;;28.30;;
6095;SDS011;25081;42.698;23.298;2023-02-28T08:29:48;47.40;;;27.20;;
6095;SDS011;25081;42.698;23.298;2023-02-28T08:31:59;38.70;;;26.07;;
6095;SDS011;25081;42.698;23.298;2023-02-28T08:34:09;40.63;;;26.90;;
6095;SDS011;25081;42.698;23.298;2023-02-28T08:36:19;34.97;;;25.00;;
6095;SDS011;25081;42.698;23.298;2023-02-28T08:38:30;33.77;;;25.20;;
6095;SDS011;25081;42.698;23.298;2023-02-28T08:40:40;42.93;;;23.73;;
6095;SDS011;25081;42.698;23.298;2023-02-28T08:42:51;38.10;;;25.40;;
6095;SDS011;25081;42.698;23.298;2023-02-28T08:45:02;39.23;;;26.47;;
6095;SDS011;25081;42.698;23.298;2023-02-28T08:47:13;36.70;;;28.20;;
6095;SDS011;25081;42.698;23.298;2023-02-28T08:49:24;41.27;;;25.70;;
6095;SDS011;25081;42.698;23.298;2023-02-28T08:51:35;42.67;;;26.83;;
6095;SDS011;25081;42.698;23.298;2023-02-28T08:53:45;34.25;;;24.92;;
6095;SDS011;25081;42.698;23.298;2023-02-28T08:55:58;40.98;;;26.45;;
6095;SDS011;25081;42.698;23.298;2023-02-28T08:58:08;43.00;;;27.62;;
6095;SDS011;25081;42.698;23.298;2023-02-28T09:00:20;44.45;;;27.37;;
6095;SDS011;25081;42.698;23.298;2023-02-28T09:02:32;45.63;;;30.35;;
6095;SDS011;25081;42.698;23.298;2023-02-28T09:04:42;52.75;;;33.00;;
6095;SDS011;25081;42.698;23.298;2023-02-28T09:06:54;56.05;;;32.28;;
6095;SDS011;25081;42.698;23.298;2023-02-28T09:09:04;43.05;;;31.57;;
6095;SDS011;25081;42.698;23.298;2023-02-28T09:11:15;49.75;;;34.13;;
6095;SDS011;25081;42.698;23.298;2023-02-28T09:13:26;50.05;;;32.55;;
6095;SDS011;25081;42.698;23.298;2023-02-28T09:15:37;57.27;;;33.25;;
6095;SDS011;25081;42.698;23.298;2023-02-28T09:17:48;54.33;;;30.80;;
6095;SDS011;25081;42.698;23.298;2023-02-28T09:19:58;58.45;;;34.35;;
6095;SDS011;25081;42.698;23.298;2023-02-28T09:22:09;57.43;;;31.55;;
6095;SDS011;25081;42.698;23.298;2023-02-28T09:24:19;52.45;;;31.62;;
6095;SDS011;25081;42.698;23.298;2023-02-28T09:26:30;56.65;;;34.15;;
6095;SDS011;25081;42.698;23.298;2023-02-28T09:28:43;50.78;;;33.00;;
6095;SDS011;25081;42.698;23.298;2023-02-28T09:30:54;58.25;;;35.95;;
6095;SDS011;25081;42.698;23.298;2023-02-28T09:33:04;49.67;;;30.50;;
6095;SDS011;25081;42.698;23.298;2023-02-28T09:35:15;59.03;;;33.58;;
6095;SDS011;25081;42.698;23.298;2023-02-28T09:37:25;55.25;;;32.58;;
6095;SDS011;25081;42.698;23.298;2023-02-28T09:39:36;53.78;;;31.75;;
6095;SDS011;25081;42.698;23.298;2023-02-28T09:41:47;53.25;;;31.33;;
6095;SDS011;25081;42.698;23.298;2023-02-28T09:43:58;52.03;;;31.10;;
6095;SDS011;25081;42.698;23.298;2023-02-28T09:46:11;55.25;;;32.95;;
6095;SDS011;25081;42.698;23.298;2023-02-28T09:48:22;56.23;;;35.65;;
6095;SDS011;25081;42.698;23.298;2023-02-28T09:50:33;57.75;;;32.55;;
6095;SDS011;25081;42.698;23.298;2023-02-28T09:52:42;54.40;;;33.43;;
6095;SDS011;25081;42.698;23.298;2023-02-28T09:54:53;58.58;;;32.85;;
6095;SDS011;25081;42.698;23.298;2023-02-28T09:57:06;49.70;;;32.80;;
6095;SDS011;25081;42.698;23.298;2023-02-28T09:59:17;50.15;;;31.95;;
6095;SDS011;25081;42.698;23.298;2023-02-28T10:01:30;52.75;;;32.70;;
6095;SDS011;25081;42.698;23.298;2023-02-28T10:03:40;51.77;;;33.65;;
6095;SDS011;25081;42.698;23.298;2023-02-28T10:05:51;52.33;;;33.60;;
6095;SDS011;25081;42.698;23.298;2023-02-28T10:08:03;48.93;;;30.00;;
6095;SDS011;25081;42.698;23.298;2023-02-28T10:10:25;54.27;;;29.07;;
6095;SDS011;25081;42.698;23.298;2023-02-28T10:12:35;42.03;;;25.43;;
6095;SDS011;25081;42.698;23.298;2023-02-28T10:14:45;48.60;;;25.80;;
6095;SDS011;25081;42.698;23.298;2023-02-28T10:16:56;52.57;;;28.17;;
6095;SDS011;25081;42.698;23.298;2023-02-28T10:19:08;17.73;;;9.63;;
6095;SDS011;25081;42.698;23.298;2023-02-28T10:21:19;28.65;;;15.13;;
6095;SDS011;25081;42.698;23.298;2023-02-28T10:23:32;26.02;;;14.60;;
6095;SDS011;25081;42.698;23.298;2023-02-28T10:25:41;28.10;;;15.38;;
6095;SDS011;25081;42.698;23.298;2023-02-28T10:27:53;20.43;;;12.78;;
6095;SDS011;25081;42.698;23.298;2023-02-28T10:30:05;21.33;;;8.98;;
6095;SDS011;25081;42.698;23.298;2023-02-28T10:32:18;23.65;;;12.03;;
6095;SDS011;25081;42.698;23.298;2023-02-28T10:34:28;27.07;;;14.20;;
6095;SDS011;25081;42.698;23.298;2023-02-28T10:36:39;24.85;;;13.22;;
6095;SDS011;25081;42.698;23.298;2023-02-28T10:38:50;25.60;;;12.80;;
6095;SDS011;25081;42.698;23.298;2023-02-28T10:41:05;12.50;;;6.58;;
6095;SDS011;25081;42.698;23.298;2023-02-28T10:43:22;18.35;;;8.28;;
6095;SDS011;25081;42.698;23.298;2023-02-28T10:45:33;20.80;;;10.78;;
6095;SDS011;25081;42.698;23.298;2023-02-28T10:47:51;15.85;;;8.80;;
6095;SDS011;25081;42.698;23.298;2023-02-28T10:50:01;21.27;;;9.55;;
6095;SDS011;25081;42.698;23.298;2023-02-28T10:52:12;27.15;;;13.65;;
6095;SDS011;25081;42.698;23.298;2023-02-28T10:54:28;14.73;;;8.70;;
6095;SDS011;25081;42.698;23.298;2023-02-28T10:56:33;19.50;;;9.77;;
6095;SDS011;25081;42.698;23.298;2023-02-28T10:58:54;23.50;;;11.87;;
6095;SDS011;25081;42.698;23.298;2023-02-28T11:01:02;26.43;;;13.50;;
6095;SDS011;25081;42.698;23.298;2023-02-28T11:03:21;22.50;;;13.30;;
6095;SDS011;25081;42.698;23.298;2023-02-28T11:05:35;18.90;;;10.80;;
6095;SDS011;25081;42.698;23.298;2023-02-28T11:07:44;18.03;;;9.67;;
6095;SDS011;25081;42.698;23.298;2023-02-28T11:09:58;30.50;;;15.40;;
6095;SDS011;25081;42.698;23.298;2023-02-28T11:12:21;27.03;;;13.27;;
6095;SDS011;25081;42.698;23.298;2023-02-28T11:14:28;25.63;;;12.70;;
6095;SDS011;25081;42.698;23.298;2023-02-28T11:16:37;12.87;;;8.20;;
6095;SDS011;25081;42.698;23.298;2023-02-28T11:18:48;26.15;;;12.63;;
6095;SDS011;25081;42.698;23.298;2023-02-28T11:20:59;16.57;;;9.43;;
6095;SDS011;25081;42.698;23.298;2023-02-28T11:23:11;18.60;;;7.43;;
6095;SDS011;25081;42.698;23.298;2023-02-28T11:25:22;19.90;;;10.67;;
6095;SDS011;25081;42.698;23.298;2023-02-28T11:27:50;28.20;;;10.83;;
6095;SDS011;25081;42.698;23.298;2023-02-28T11:30:00;32.78;;;14.25;;
6095;SDS011;25081;42.698;23.298;2023-02-28T11:32:16;23.40;;;11.80;;
6095;SDS011;25081;42.698;23.298;2023-02-28T11:34:26;25.13;;;12.20;;
6095;SDS011;25081;42.698;23.298;2023-02-28T11:36:36;20.68;;;12.15;;
6095;SDS011;25081;42.698;23.298;2023-02-28T11:38:46;31.33;;;14.37;;
6095;SDS011;25081;42.698;23.298;2023-02-28T11:41:03;28.43;;;12.00;;
6095;SDS011;25081;42.698;23.298;2023-02-28T11:43:19;9.77;;;6.80;;
6095;SDS011;25081;42.698;23.298;2023-02-28T11:45:38;22.13;;;10.50;;
6095;SDS011;25081;42.698;23.298;2023-02-28T11:47:51;26.30;;;11.53;;
6095;SDS011;25081;42.698;23.298;2023-02-28T11:50:07;17.17;;;9.33;;
6095;SDS011;25081;42.698;23.298;2023-02-28T11:52:24;11.70;;;7.87;;
6095;SDS011;25081;42.698;23.298;2023-02-28T11:54:39;18.62;;;10.00;;
6095;SDS011;25081;42.698;23.298;2023-02-28T11:56:58;26.50;;;14.83;;
6095;SDS011;25081;42.698;23.298;2023-02-28T11:59:13;25.67;;;15.70;;
6095;SDS011;25081;42.698;23.298;2023-02-28T12:01:47;27.60;;;15.30;;
6095;SDS011;25081;42.698;23.298;2023-02-28T12:04:12;17.53;;;10.33;;
6095;SDS011;25081;42.698;23.298;2023-02-28T12:06:27;25.65;;;13.50;;
6095;SDS011;25081;42.698;23.298;2023-02-28T12:08:42;24.47;;;13.30;;
6095;SDS011;25081;42.698;23.298;2023-02-28T12:10:56;24.53;;;14.60;;
6095;SDS011;25081;42.698;23.298;2023-02-28T12:13:10;22.03;;;8.87;;
6095;SDS011;25081;42.698;23.298;2023-02-28T12:18:02;24.35;;;11.78;;
6095;SDS011;25081;42.698;23.298;2023-02-28T12:20:18;23.15;;;12.28;;
6095;SDS011;25081;42.698;23.298;2023-02-28T12:22:31;28.40;;;14.60;;
6095;SDS011;25081;42.698;23.298;2023-02-28T12:27:46;13.70;;;9.23;;
6095;SDS011;25081;42.698;23.298;2023-02-28T12:29:57;19.53;;;10.87;;
6095;SDS011;25081;42.698;23.298;2023-02-28T12:32:09;28.47;;;11.57;;
6095;SDS011;25081;42.698;23.298;2023-02-28T12:34:19;26.43;;;12.37;;
6095;SDS011;25081;42.698;23.298;2023-02-28T12:36:29;18.87;;;9.07;;
6095;SDS011;25081;42.698;23.298;2023-02-28T12:38:41;29.50;;;13.50;;
6095;SDS011;25081;42.698;23.298;2023-02-28T12:40:52;27.70;;;11.73;;
6095;SDS011;25081;42.698;23.298;2023-02-28T12:43:03;35.80;;;14.47;;
6095;SDS011;25081;42.698;23.298;2023-02-28T12:45:15;23.80;;;13.80;;
6095;SDS011;25081;42.698;23.298;2023-02-28T12:47:25;37.37;;;7.87;;
6095;SDS011;25081;42.698;23.298;2023-02-28T12:49:36;16.82;;;9.85;;
6095;SDS011;25081;42.698;23.298;2023-02-28T12:51:47;30.08;;;14.03;;
6095;SDS011;25081;42.698;23.298;2023-02-28T12:53:59;30.35;;;14.20;;
6095;SDS011;25081;42.698;23.298;2023-02-28T12:56:12;32.23;;;15.32;;
6095;SDS011;25081;42.698;23.298;2023-02-28T12:58:25;11.38;;;5.58;;
6095;SDS011;25081;42.698;23.298;2023-02-28T13:00:35;31.63;;;12.37;;
6095;SDS011;25081;42.698;23.298;2023-02-28T13:02:55;20.00;;;9.50;;
6095;SDS011;25081;42.698;23.298;2023-02-28T13:05:11;20.37;;;10.77;;
6095;SDS011;25081;42.698;23.298;2023-02-28T13:07:49;25.70;;;12.67;;